createdAt,value
2022-08-16T00:02:32.986Z,69.05
2022-08-16T00:05:01.217Z,68.79
2022-08-16T00:07:29.650Z,68.99
2022-08-16T00:09:58.863Z,69.08
2022-08-16T00:12:27.630Z,69.04
2022-08-16T00:14:57.943Z,69.65
2022-08-16T00:17:28.148Z,69.50
2022-08-16T00:19:56.907Z,69.18
2022-08-16T00:22:25.726Z,69.46
2022-08-16T00:24:55.851Z,69.46
2022-08-16T00:27:24.285Z,69.44
2022-08-16T00:30:08.495Z,69.85
2022-08-16T00:32:39.794Z,69.83
2022-08-16T00:35:15.280Z,69.88
2022-08-16T00:37:56.183Z,69.93
2022-08-16T00:40:34.755Z,69.83
2022-08-16T00:43:11.798Z,69.88
2022-08-16T00:46:00.120Z,70.01
2022-08-16T00:48:45.498Z,70.28
2022-08-16T00:51:16.175Z,70.46
2022-08-16T00:53:46.514Z,70.70
2022-08-16T00:56:58.379Z,70.45
2022-08-16T00:59:06.994Z,70.45
2022-08-16T01:01:35.900Z,70.97
2022-08-16T01:04:29.195Z,70.90
2022-08-16T01:07:01.820Z,71.12
2022-08-16T01:09:33.189Z,71.46
2022-08-16T01:12:02.915Z,71.31
2022-08-16T01:14:36.309Z,70.84
2022-08-16T01:17:08.471Z,70.88
2022-08-16T01:19:42.796Z,71.13
2022-08-16T01:22:47.777Z,71.19
2022-08-16T01:25:11.047Z,71.28
2022-08-16T01:27:45.043Z,71.63
2022-08-16T01:30:19.987Z,71.70
2022-08-16T01:33:01.304Z,71.86
2022-08-16T01:35:36.279Z,72.28
2022-08-16T01:38:19.605Z,72.16
2022-08-16T01:40:50.089Z,71.95
2022-08-16T01:43:18.346Z,72.20
2022-08-16T01:45:47.485Z,72.13
2022-08-16T01:48:27.880Z,72.14
2022-08-16T01:51:16.559Z,72.06
2022-08-16T01:53:44.007Z,72.25
2022-08-16T01:56:24.890Z,72.80
2022-08-16T01:58:53.808Z,73.22
2022-08-16T02:01:21.884Z,73.25
2022-08-16T02:03:50.733Z,73.77
2022-08-16T02:06:33.738Z,73.53
2022-08-16T02:09:05.154Z,73.18
2022-08-16T02:11:47.952Z,73.37
2022-08-16T02:14:18.262Z,73.75
2022-08-16T02:16:49.184Z,73.23
2022-08-16T02:19:18.398Z,73.14
2022-08-16T02:22:08.554Z,73.10
2022-08-16T02:24:41.260Z,73.81
2022-08-16T02:27:12.271Z,74.61
2022-08-16T02:29:41.263Z,74.86
2022-08-16T02:32:49.361Z,75.42
2022-08-16T02:34:59.234Z,75.10
2022-08-16T02:37:51.732Z,74.97
2022-08-16T02:40:17.748Z,75.24
2022-08-16T02:42:49.597Z,75.71
2022-08-16T02:45:19.759Z,75.54
2022-08-16T02:48:00.964Z,75.48
2022-08-16T02:50:55.463Z,75.76
2022-08-16T02:53:23.823Z,75.69
2022-08-16T02:55:51.738Z,75.81
2022-08-16T02:58:24.964Z,75.82
2022-08-16T03:00:56.011Z,75.95
2022-08-16T03:03:24.836Z,75.65
2022-08-16T03:05:53.105Z,75.87
2022-08-16T03:08:51.071Z,75.75
2022-08-16T03:11:17.786Z,76.07
2022-08-16T03:13:56.621Z,77.08
2022-08-16T03:16:38.110Z,76.67
2022-08-16T03:19:08.278Z,76.19
2022-08-16T03:21:38.086Z,76.99
2022-08-16T03:24:28.148Z,77.18
2022-08-16T03:26:58.210Z,77.51
2022-08-16T03:29:30.404Z,77.52
2022-08-16T03:31:59.426Z,76.22
2022-08-16T03:34:27.518Z,76.78
2022-08-16T03:36:56.122Z,76.68
2022-08-16T03:39:24.371Z,77.09
2022-08-16T03:42:00.061Z,77.04
2022-08-16T03:44:44.831Z,77.23
2022-08-16T03:47:19.151Z,77.04
2022-08-16T03:49:51.761Z,77.16
2022-08-16T03:52:20.559Z,77.48
2022-08-16T03:54:53.654Z,77.13
2022-08-16T03:57:32.061Z,76.74
2022-08-16T04:00:36.007Z,76.44
2022-08-16T04:03:07.316Z,77.68
2022-08-16T04:05:36.904Z,77.96
2022-08-16T04:08:23.291Z,77.94
2022-08-16T04:10:54.891Z,77.83
2022-08-16T04:13:59.047Z,77.54
2022-08-16T04:16:26.509Z,77.71
2022-08-16T04:19:02.299Z,77.96
2022-08-16T04:21:32.205Z,77.89
2022-08-16T04:24:00.476Z,77.96
2022-08-16T04:26:31.122Z,77.81
2022-08-16T04:29:15.183Z,77.54
2022-08-16T04:31:55.837Z,77.62
2022-08-16T04:34:27.909Z,77.13
2022-08-16T04:36:58.059Z,77.48
2022-08-16T04:39:44.836Z,76.58
2022-08-16T04:42:14.569Z,77.54
2022-08-16T04:44:53.529Z,77.07
2022-08-16T04:47:31.445Z,77.26
2022-08-16T04:50:01.605Z,76.26
2022-08-16T04:52:34.608Z,77.16
2022-08-16T04:55:08.174Z,76.56
2022-08-16T04:57:37.269Z,77.10
2022-08-16T05:00:30.932Z,76.99
2022-08-16T05:02:58.908Z,76.99
2022-08-16T05:05:32.672Z,77.08
2022-08-16T05:08:28.357Z,76.80
2022-08-16T05:10:50.216Z,76.80
2022-08-16T05:13:19.100Z,76.93
2022-08-16T05:15:47.793Z,76.49
2022-08-16T05:18:26.872Z,76.31
2022-08-16T05:21:01.765Z,76.42
2022-08-16T05:23:37.962Z,75.71
2022-08-16T05:26:06.356Z,76.25
2022-08-16T05:28:47.614Z,76.22
2022-08-16T05:31:23.982Z,75.42
2022-08-16T05:34:00.266Z,74.91
2022-08-16T05:36:33.944Z,75.00
2022-08-16T05:39:06.106Z,75.62
2022-08-16T05:41:44.691Z,74.57
2022-08-16T05:44:23.122Z,73.62
2022-08-16T05:46:55.824Z,74.33
2022-08-16T05:49:38.499Z,73.69
2022-08-16T05:52:11.608Z,73.67
2022-08-16T05:54:46.599Z,74.34
2022-08-16T05:57:17.122Z,74.74
2022-08-16T05:59:45.448Z,74.34
2022-08-16T06:02:14.343Z,74.20
2022-08-16T06:04:45.137Z,73.84
2022-08-16T06:07:25.174Z,73.64
2022-08-16T06:09:58.121Z,73.49
2022-08-16T06:12:28.979Z,73.56
2022-08-16T06:14:59.701Z,73.30
2022-08-16T06:17:41.217Z,72.22
2022-08-16T06:20:18.466Z,72.49
2022-08-16T06:22:57.460Z,72.41
2022-08-16T06:25:36.081Z,72.26
2022-08-16T06:28:10.107Z,72.15
2022-08-16T06:30:43.271Z,72.10
2022-08-16T06:33:12.764Z,71.26
2022-08-16T06:35:42.039Z,69.83
2022-08-16T06:38:32.563Z,70.10
2022-08-16T06:40:58.032Z,69.40
2022-08-16T06:43:27.407Z,70.50
2022-08-16T06:45:56.567Z,70.19
2022-08-16T06:48:33.032Z,69.08
2022-08-16T06:51:04.295Z,68.37
2022-08-16T06:53:33.681Z,69.06
2022-08-16T06:56:06.613Z,68.52
2022-08-16T06:58:43.013Z,68.87
2022-08-16T07:01:14.903Z,68.25
2022-08-16T07:03:55.172Z,68.38
2022-08-16T07:06:27.315Z,68.09
2022-08-16T07:08:56.067Z,67.29
2022-08-16T07:11:45.661Z,66.45
2022-08-16T07:14:25.641Z,65.94
2022-08-16T07:16:58.292Z,65.78
2022-08-16T07:19:33.724Z,66.05
2022-08-16T07:22:38.627Z,67.14
2022-08-16T07:25:07.416Z,68.23
2022-08-16T07:27:37.422Z,66.82
2022-08-16T07:30:39.320Z,65.90
2022-08-16T07:32:56.491Z,66.12
2022-08-16T07:35:24.805Z,65.91
2022-08-16T07:37:54.256Z,65.85
2022-08-16T07:40:36.973Z,64.29
2022-08-16T07:43:10.072Z,64.36
2022-08-16T07:45:39.093Z,64.83
2022-08-16T07:48:12.605Z,64.18
2022-08-16T07:50:57.263Z,64.79
2022-08-16T07:53:30.122Z,64.50
2022-08-16T07:56:00.104Z,64.25
2022-08-16T07:58:33.661Z,63.43
2022-08-16T08:01:05.571Z,63.31
2022-08-16T08:03:41.651Z,62.49
2022-08-16T08:06:11.916Z,61.70
2022-08-16T08:08:50.404Z,62.20
2022-08-16T08:11:21.277Z,63.45
2022-08-16T08:13:49.635Z,61.98
2022-08-16T08:16:19.880Z,60.74
2022-08-16T08:18:50.097Z,61.65
2022-08-16T08:21:19.576Z,60.25
2022-08-16T08:23:57.585Z,59.64
2022-08-16T08:26:26.252Z,60.65
2022-08-16T08:29:00.888Z,59.65
2022-08-16T08:31:29.879Z,59.61
2022-08-16T08:33:59.930Z,59.21
2022-08-16T08:36:33.439Z,58.89
2022-08-16T08:39:04.089Z,58.44
2022-08-16T08:41:42.238Z,59.09
2022-08-16T08:44:28.851Z,58.37
2022-08-16T08:47:01.357Z,56.73
2022-08-16T08:49:50.340Z,57.11
2022-08-16T08:52:33.629Z,56.60
2022-08-16T08:55:10.501Z,56.81
2022-08-16T08:57:40.773Z,57.67
2022-08-16T09:00:13.585Z,56.83
2022-08-16T09:02:44.604Z,55.87
2022-08-16T09:05:15.918Z,54.36
2022-08-16T09:08:01.793Z,54.58
2022-08-16T09:10:34.813Z,54.08
2022-08-16T09:13:08.799Z,54.16
2022-08-16T09:15:38.756Z,54.90
2022-08-16T09:18:26.459Z,55.28
2022-08-16T09:20:59.881Z,56.19
2022-08-16T09:23:31.092Z,55.50
2022-08-16T09:26:43.084Z,54.35
2022-08-16T09:29:14.359Z,54.34
2022-08-16T09:31:43.805Z,53.69
2022-08-16T09:34:17.231Z,53.98
2022-08-16T09:36:47.025Z,54.50
2022-08-16T09:39:16.250Z,55.54
2022-08-16T09:41:53.247Z,55.43
2022-08-16T09:45:09.441Z,56.17
2022-08-16T09:47:11.656Z,54.31
2022-08-16T09:49:40.988Z,54.08
2022-08-16T09:52:10.002Z,53.34
2022-08-16T09:54:38.938Z,53.63
2022-08-16T09:57:13.873Z,52.03
2022-08-16T09:59:43.148Z,50.58
2022-08-16T10:02:26.117Z,50.75
2022-08-16T10:04:57.061Z,51.57
2022-08-16T10:07:26.133Z,50.59
2022-08-16T10:10:12.009Z,50.16
2022-08-16T10:12:58.597Z,49.71
2022-08-16T10:15:30.273Z,49.92
2022-08-16T10:18:01.616Z,48.40
2022-08-16T10:20:34.539Z,49.25
2022-08-16T10:23:06.870Z,49.16
2022-08-16T10:27:17.214Z,48.95
2022-08-16T10:28:29.213Z,49.71
2022-08-16T10:30:59.430Z,49.31
2022-08-16T10:33:29.764Z,48.68
2022-08-16T10:36:03.830Z,47.63
2022-08-16T10:38:32.790Z,47.00
2022-08-16T10:41:01.474Z,48.52
2022-08-16T10:43:31.275Z,48.81
2022-08-16T10:46:01.145Z,50.04
2022-08-16T10:48:29.984Z,48.84
2022-08-16T10:51:00.114Z,49.78
2022-08-16T10:53:32.997Z,48.63
2022-08-16T10:56:02.518Z,49.15
2022-08-16T10:58:33.936Z,47.39
2022-08-16T11:01:25.077Z,48.36
2022-08-16T11:03:53.976Z,47.39
2022-08-16T11:06:26.998Z,47.62
2022-08-16T11:14:37.287Z,48.78
2022-08-16T11:17:09.203Z,47.57
2022-08-16T11:22:46.932Z,46.43
2022-08-16T11:28:08.639Z,46.92
2022-08-16T11:30:38.983Z,46.09
2022-08-16T11:33:08.858Z,45.03
2022-08-16T11:35:44.181Z,44.35
2022-08-16T11:38:46.636Z,44.08
2022-08-16T11:41:03.655Z,43.36
2022-08-16T11:43:33.773Z,44.72
2022-08-16T11:46:34.197Z,44.09
2022-08-16T11:48:54.788Z,42.12
2022-08-16T11:51:22.619Z,43.69
2022-08-16T11:53:50.492Z,43.46
2022-08-16T11:56:19.971Z,42.19
2022-08-16T11:59:08.314Z,42.94
2022-08-16T12:01:55.156Z,42.48
2022-08-16T12:04:23.820Z,42.51
2022-08-16T12:06:54.616Z,42.18
2022-08-16T12:09:23.995Z,42.75
2022-08-16T12:11:53.530Z,42.84
2022-08-16T12:14:23.018Z,42.24
2022-08-16T12:16:55.158Z,42.55
2022-08-16T12:19:35.223Z,42.19
2022-08-16T12:22:05.875Z,43.04
2022-08-16T12:24:52.038Z,42.30
2022-08-16T12:27:23.933Z,42.58
2022-08-16T12:29:52.558Z,41.77
2022-08-16T12:32:37.734Z,41.93
2022-08-16T12:35:13.041Z,41.28
2022-08-16T12:37:42.041Z,41.42
2022-08-16T12:40:23.972Z,41.12
2022-08-16T12:42:58.894Z,41.87
2022-08-16T12:45:30.120Z,41.37
2022-08-16T12:48:33.666Z,40.50
2022-08-16T12:51:03.260Z,40.01
2022-08-16T12:53:31.967Z,39.85
2022-08-16T12:56:00.458Z,39.90
2022-08-16T12:58:49.133Z,39.07
2022-08-16T13:01:16.619Z,38.88
2022-08-16T13:03:46.676Z,38.49
2022-08-16T13:06:20.117Z,39.35
2022-08-16T13:08:58.351Z,39.37
2022-08-16T13:11:33.696Z,38.95
2022-08-16T13:14:01.585Z,38.51
2022-08-16T13:16:33.241Z,38.13
2022-08-16T13:19:03.429Z,38.47
2022-08-16T13:21:35.427Z,37.71
2022-08-16T13:24:04.164Z,38.44
2022-08-16T13:26:33.703Z,38.65
2022-08-16T13:29:01.573Z,38.84
2022-08-16T13:31:29.469Z,37.79
2022-08-16T13:33:58.607Z,38.32
2022-08-16T13:39:17.077Z,36.73
2022-08-16T13:41:45.258Z,37.11
2022-08-16T13:44:22.500Z,37.36
2022-08-16T13:47:10.458Z,36.80
2022-08-16T13:49:38.340Z,36.68
2022-08-16T13:52:09.079Z,37.70
2022-08-16T13:54:36.860Z,35.92
2022-08-16T13:57:05.703Z,35.68
2022-08-16T13:59:33.589Z,34.41
2022-08-16T14:02:04.042Z,30.79
2022-08-16T14:04:36.513Z,29.38
2022-08-16T14:07:09.605Z,26.81
2022-08-16T14:09:38.265Z,25.33
2022-08-16T14:12:17.510Z,24.35
2022-08-16T14:14:46.811Z,24.29
2022-08-16T14:17:16.573Z,21.74
2022-08-16T14:19:46.187Z,20.94
2022-08-16T14:22:30.542Z,21.53
2022-08-16T14:25:00.896Z,20.45
2022-08-16T14:27:31.550Z,18.90
2022-08-16T14:30:01.137Z,22.28
2022-08-16T14:32:33.965Z,23.87
2022-08-16T14:35:04.000Z,21.56
2022-08-16T14:37:33.447Z,20.90
2022-08-16T14:40:01.361Z,22.03
2022-08-16T14:42:31.556Z,20.03
2022-08-16T14:45:00.673Z,21.38
2022-08-16T14:47:34.158Z,19.32
2022-08-16T14:50:03.251Z,18.66
2022-08-16T14:52:54.601Z,20.44
2022-08-16T14:55:23.943Z,20.02
2022-08-16T14:57:52.713Z,19.82
2022-08-16T15:00:33.013Z,19.04
2022-08-16T15:03:03.465Z,19.77
2022-08-16T15:05:32.982Z,22.14
2022-08-16T15:08:02.362Z,20.54
2022-08-16T15:10:32.239Z,21.29
2022-08-16T15:13:01.517Z,18.33
2022-08-16T15:15:31.360Z,20.02
2022-08-16T15:18:01.765Z,20.84
2022-08-16T15:20:33.753Z,19.66
2022-08-16T15:23:05.774Z,19.80
2022-08-16T15:25:36.672Z,17.63
2022-08-16T15:28:30.507Z,19.15
2022-08-16T15:31:00.967Z,19.44
2022-08-16T15:33:33.450Z,20.92
2022-08-16T15:36:02.283Z,21.56
2022-08-16T15:39:02.609Z,23.31
2022-08-16T15:42:01.165Z,27.02
2022-08-16T15:44:38.874Z,28.98
2022-08-16T15:47:18.762Z,29.08
2022-08-16T15:49:53.143Z,30.34
2022-08-16T15:52:29.858Z,30.49
2022-08-16T15:55:12.955Z,30.28
2022-08-16T15:57:44.240Z,30.10
2022-08-16T16:00:15.652Z,31.23
2022-08-16T16:02:44.227Z,31.95
2022-08-16T16:05:13.933Z,31.59
2022-08-16T16:07:55.719Z,32.92
2022-08-16T16:10:29.528Z,32.87
2022-08-16T16:12:59.700Z,33.07
2022-08-16T16:15:31.070Z,32.77
2022-08-16T16:17:59.958Z,33.25
2022-08-16T16:20:37.327Z,32.92
2022-08-16T16:23:11.141Z,32.97
2022-08-16T16:25:43.781Z,33.36
2022-08-16T16:28:46.345Z,33.52
2022-08-16T16:31:04.711Z,33.54
2022-08-16T16:33:33.949Z,33.81
2022-08-16T16:36:05.718Z,34.22
2022-08-16T16:38:36.013Z,34.25
2022-08-16T16:41:11.341Z,34.42
2022-08-16T16:43:42.928Z,33.64
2022-08-16T16:46:38.946Z,34.16
2022-08-16T16:49:03.029Z,34.52
2022-08-16T16:51:32.665Z,34.47
2022-08-16T16:54:12.984Z,34.18
2022-08-16T16:56:49.581Z,34.48
2022-08-16T16:59:18.217Z,33.97
2022-08-16T17:01:59.659Z,33.72
2022-08-16T17:04:37.654Z,34.35
2022-08-16T17:07:10.482Z,33.97
2022-08-16T17:09:40.408Z,34.07
2022-08-16T17:12:21.700Z,33.94
2022-08-16T17:14:53.512Z,34.05
2022-08-16T17:17:21.656Z,34.53
2022-08-16T17:19:49.740Z,34.62
2022-08-16T17:22:20.205Z,34.76
2022-08-16T17:24:50.743Z,34.54
2022-08-16T17:27:33.287Z,34.49
2022-08-16T17:30:03.581Z,34.21
2022-08-16T17:32:50.491Z,34.56
2022-08-16T17:35:25.342Z,34.97
2022-08-16T17:38:04.722Z,34.80
2022-08-16T17:40:51.999Z,35.40
2022-08-16T17:43:28.988Z,34.94
2022-08-16T17:45:57.527Z,37.14
2022-08-16T17:48:26.141Z,36.62
2022-08-16T17:50:54.581Z,36.42
2022-08-16T17:53:22.959Z,37.56
2022-08-16T17:55:51.526Z,36.78
2022-08-16T17:58:23.107Z,38.26
2022-08-16T18:00:55.859Z,37.98
2022-08-16T18:04:02.334Z,37.74
2022-08-16T18:06:18.395Z,37.25
2022-08-16T18:08:49.127Z,36.68
2022-08-16T18:11:25.687Z,36.99
2022-08-16T18:13:55.049Z,36.68
2022-08-16T18:16:24.454Z,37.08
2022-08-16T18:18:52.268Z,37.18
2022-08-16T18:21:37.525Z,38.30
2022-08-16T18:24:05.804Z,39.27
2022-08-16T18:26:33.784Z,40.25
2022-08-16T18:29:01.612Z,40.39
2022-08-16T18:31:31.317Z,39.79
2022-08-16T18:33:59.367Z,39.26
2022-08-16T18:36:27.452Z,40.01
2022-08-16T18:38:55.746Z,40.07
2022-08-16T18:41:25.862Z,41.47
2022-08-16T18:44:26.538Z,42.12
2022-08-16T18:46:50.723Z,43.00
2022-08-16T18:49:19.729Z,43.30
2022-08-16T18:51:47.876Z,43.76
2022-08-16T18:54:18.606Z,43.55
2022-08-16T18:56:56.117Z,44.01
2022-08-16T18:59:26.911Z,44.63
2022-08-16T19:02:00.101Z,45.49
2022-08-16T19:04:47.608Z,46.64
2022-08-16T19:07:20.862Z,47.43
2022-08-16T19:09:48.945Z,47.66
2022-08-16T19:12:16.896Z,48.16
2022-08-16T19:15:07.146Z,47.72
2022-08-16T19:17:36.901Z,48.04
2022-08-16T19:20:10.490Z,48.64
2022-08-16T19:23:02.145Z,49.37
2022-08-16T19:25:48.484Z,49.65
2022-08-16T19:28:46.671Z,50.18
2022-08-16T19:31:10.706Z,51.02
2022-08-16T19:33:40.527Z,50.42
2022-08-16T19:36:32.084Z,51.13
2022-08-16T19:39:05.394Z,51.19
2022-08-16T19:41:36.208Z,50.99
2022-08-16T19:44:05.508Z,51.60
2022-08-16T19:46:33.677Z,51.91
2022-08-16T19:49:03.474Z,51.97
2022-08-16T19:51:31.645Z,52.17
2022-08-16T19:53:59.775Z,52.93
2022-08-16T19:56:27.685Z,53.06
2022-08-16T20:01:45.216Z,52.50
2022-08-16T20:04:14.864Z,52.15
2022-08-16T20:06:43.264Z,52.04
2022-08-16T20:09:14.933Z,51.10
2022-08-16T20:11:43.865Z,50.97
2022-08-16T20:14:24.633Z,51.18
2022-08-16T20:16:55.515Z,52.42
2022-08-16T20:19:25.132Z,52.91
2022-08-16T20:21:53.120Z,53.81
2022-08-16T20:24:36.794Z,54.03
2022-08-16T20:27:07.676Z,54.02
2022-08-16T20:29:36.487Z,54.62
2022-08-16T20:32:05.724Z,54.43
2022-08-16T20:34:35.734Z,55.33
2022-08-16T20:37:05.019Z,55.41
2022-08-16T20:39:33.464Z,55.87
2022-08-16T20:42:01.341Z,56.00
2022-08-16T20:44:29.236Z,56.52
2022-08-16T20:46:57.035Z,56.42
2022-08-16T20:49:24.937Z,56.48
2022-08-16T20:51:59.149Z,56.77
2022-08-16T20:54:28.367Z,57.11
2022-08-16T20:56:56.465Z,57.07
2022-08-16T20:59:24.322Z,57.18
2022-08-16T21:01:52.210Z,57.09
2022-08-16T21:04:20.317Z,57.41
2022-08-16T21:06:53.815Z,57.81
2022-08-16T21:09:24.741Z,57.67
2022-08-16T21:11:54.380Z,57.82
2022-08-16T21:14:22.253Z,58.23
2022-08-16T21:16:50.163Z,58.56
2022-08-16T21:19:18.074Z,58.19
2022-08-16T21:21:45.972Z,57.97
2022-08-16T21:24:14.355Z,57.09
2022-08-16T21:26:53.046Z,57.47
2022-08-16T21:29:40.033Z,57.77
2022-08-16T21:32:14.149Z,58.38
2022-08-16T21:34:42.935Z,57.81
2022-08-16T21:37:11.077Z,58.66
2022-08-16T21:39:39.087Z,58.57
2022-08-16T21:42:10.655Z,59.02
2022-08-16T21:44:39.210Z,58.93
2022-08-16T21:47:08.252Z,58.76
2022-08-16T21:49:37.633Z,59.15
2022-08-16T21:52:06.808Z,59.62
2022-08-16T21:54:35.366Z,59.37
2022-08-16T21:57:05.562Z,59.68
2022-08-16T21:59:37.943Z,59.86
2022-08-16T22:02:06.433Z,60.26
2022-08-16T22:04:36.921Z,60.01
2022-08-16T22:07:06.332Z,60.23
2022-08-16T22:09:34.163Z,59.82
2022-08-16T22:12:01.981Z,59.35
2022-08-16T22:14:29.933Z,60.05
2022-08-16T22:16:59.149Z,59.83
2022-08-16T22:19:26.962Z,59.46
2022-08-16T22:21:55.581Z,60.08
2022-08-16T22:24:23.474Z,59.65
2022-08-16T22:26:51.260Z,59.64
2022-08-16T22:29:19.201Z,59.48
2022-08-16T22:31:47.058Z,60.16
2022-08-16T22:34:16.522Z,60.11
2022-08-16T22:36:44.639Z,60.48
2022-08-16T22:39:14.720Z,60.91
2022-08-16T22:41:45.418Z,61.17
2022-08-16T22:44:13.759Z,61.13
2022-08-16T22:46:41.577Z,61.37
2022-08-16T22:49:10.582Z,61.48
2022-08-16T22:51:40.266Z,61.79
2022-08-16T22:54:47.387Z,61.33
2022-08-16T22:56:57.698Z,61.11
2022-08-16T22:59:25.983Z,61.19
2022-08-16T23:01:54.520Z,61.38
2022-08-16T23:04:22.444Z,62.06
2022-08-16T23:06:52.195Z,62.40
2022-08-16T23:09:19.966Z,62.96
2022-08-16T23:11:48.033Z,62.97
2022-08-16T23:14:16.519Z,63.48
2022-08-16T23:16:47.212Z,63.36
2022-08-16T23:19:17.364Z,63.76
2022-08-16T23:21:48.903Z,63.37
2022-08-16T23:24:19.262Z,63.63
2022-08-16T23:26:49.063Z,63.71
2022-08-16T23:29:24.451Z,63.84
2022-08-16T23:31:56.697Z,63.05
2022-08-16T23:34:25.339Z,63.49
2022-08-16T23:36:53.204Z,63.61
2022-08-16T23:39:22.385Z,63.64
2022-08-16T23:41:50.269Z,63.92
2022-08-16T23:44:57.719Z,64.31
2022-08-16T23:47:06.903Z,64.53
2022-08-16T23:49:57.793Z,64.94
2022-08-16T23:52:40.506Z,64.84
2022-08-16T23:55:12.140Z,65.34
2022-08-16T23:57:39.973Z,65.07
